createdAt,value
2018-07-13T00:00:22.655Z,8.10
2018-07-13T00:02:51.159Z,8.47
2018-07-13T00:05:20.252Z,8.37
2018-07-13T00:07:48.775Z,9.07
2018-07-13T00:10:17.750Z,7.63
2018-07-13T00:12:46.991Z,8.47
2018-07-13T00:15:15.969Z,9.53
2018-07-13T00:17:44.943Z,9.30
2018-07-13T00:20:13.953Z,8.97
2018-07-13T00:22:42.944Z,10.20
2018-07-13T00:25:11.884Z,8.57
2018-07-13T00:27:40.866Z,8.67
2018-07-13T00:30:09.857Z,9.43
2018-07-13T00:32:38.815Z,8.13
2018-07-13T00:35:07.873Z,10.30
2018-07-13T00:37:36.936Z,8.73
2018-07-13T00:40:05.981Z,10.00
2018-07-13T00:42:34.922Z,7.90
2018-07-13T00:45:03.893Z,8.40
2018-07-13T00:47:32.404Z,13.73
2018-07-13T00:50:01.340Z,12.60
2018-07-13T00:52:30.313Z,10.47
2018-07-13T00:54:59.230Z,11.00
2018-07-13T00:57:28.313Z,9.03
2018-07-13T00:59:57.321Z,11.13
2018-07-13T01:02:26.817Z,10.83
2018-07-13T01:04:56.005Z,11.70
2018-07-13T01:07:24.939Z,9.30
2018-07-13T01:09:54.193Z,11.37
2018-07-13T01:12:23.147Z,11.60
2018-07-13T01:14:52.122Z,9.00
2018-07-13T01:17:24.041Z,12.00
2018-07-13T01:19:53.396Z,9.80
2018-07-13T01:22:22.366Z,13.80
2018-07-13T01:24:51.332Z,11.00
2018-07-13T01:27:20.324Z,10.10
2018-07-13T01:29:49.296Z,9.20
2018-07-13T01:32:18.276Z,9.90
2018-07-13T01:34:47.832Z,9.37
2018-07-13T01:37:17.708Z,13.27
2018-07-13T01:39:46.678Z,11.80
2018-07-13T01:42:15.619Z,10.60
2018-07-13T01:44:44.097Z,11.97
2018-07-13T01:47:13.076Z,11.70
2018-07-13T01:49:42.029Z,11.63
2018-07-13T01:52:11.018Z,10.30
2018-07-13T01:54:39.997Z,11.97
2018-07-13T01:57:08.946Z,10.90
2018-07-13T01:59:37.471Z,16.43
2018-07-13T02:02:06.678Z,11.23
2018-07-13T02:04:35.749Z,9.63
2018-07-13T02:07:04.737Z,11.97
2018-07-13T02:09:33.726Z,12.43
2018-07-13T02:12:02.758Z,10.77
2018-07-13T02:14:31.729Z,12.07
2018-07-13T02:17:00.720Z,10.80
2018-07-13T02:19:29.649Z,11.70
2018-07-13T02:21:58.185Z,11.50
2018-07-13T02:24:27.118Z,10.87
2018-07-13T02:26:56.083Z,12.17
2018-07-13T02:29:25.062Z,11.37
2018-07-13T02:31:54.076Z,12.40
2018-07-13T02:34:23.059Z,10.67
2018-07-13T02:36:52.010Z,10.00
2018-07-13T02:39:20.974Z,11.67
2018-07-13T02:41:49.475Z,15.50
2018-07-13T02:44:18.485Z,10.30
2018-07-13T02:46:47.464Z,10.67
2018-07-13T02:49:16.414Z,12.13
2018-07-13T02:51:45.374Z,10.67
2018-07-13T02:54:14.428Z,11.10
2018-07-13T02:56:43.425Z,13.20
2018-07-13T02:59:12.384Z,12.93
2018-07-13T03:01:41.377Z,11.67
2018-07-13T03:04:10.461Z,11.70
2018-07-13T03:06:39.407Z,12.40
2018-07-13T03:09:10.542Z,13.50
2018-07-13T03:11:39.529Z,12.43
2018-07-13T03:14:09.023Z,12.73
2018-07-13T03:16:39.114Z,12.30
2018-07-13T03:19:08.532Z,15.10
2018-07-13T03:21:37.467Z,14.13
2018-07-13T03:24:06.469Z,11.63
2018-07-13T03:26:35.427Z,11.03
2018-07-13T03:29:04.434Z,12.80
2018-07-13T03:31:33.465Z,14.37
2018-07-13T03:34:02.674Z,14.17
2018-07-13T03:36:31.640Z,11.67
2018-07-13T03:39:00.660Z,10.63
2018-07-13T03:41:29.178Z,10.77
2018-07-13T03:43:58.123Z,14.83
2018-07-13T03:46:26.648Z,11.93
2018-07-13T03:48:55.593Z,13.10
2018-07-13T03:51:24.577Z,14.17
2018-07-13T03:53:53.551Z,13.43
2018-07-13T03:56:22.553Z,12.90
2018-07-13T03:58:51.620Z,15.40
2018-07-13T04:01:20.548Z,15.20
2018-07-13T04:03:50.579Z,16.20
2018-07-13T04:06:19.586Z,14.97
2018-07-13T04:08:48.605Z,11.90
2018-07-13T04:11:17.679Z,13.83
2018-07-13T04:13:46.635Z,13.13
2018-07-13T04:16:15.636Z,15.30
2018-07-13T04:18:44.590Z,19.00
2018-07-13T04:21:13.664Z,14.53
2018-07-13T04:23:42.763Z,14.60
2018-07-13T04:26:11.810Z,12.60
2018-07-13T04:28:40.968Z,14.13
2018-07-13T04:31:10.029Z,14.03
2018-07-13T04:33:38.989Z,12.77
2018-07-13T04:36:07.990Z,22.40
2018-07-13T04:38:37.067Z,14.37
2018-07-13T04:41:06.362Z,15.17
2018-07-13T04:43:35.380Z,15.97
2018-07-13T04:46:04.959Z,13.50
2018-07-13T04:48:34.209Z,15.90
2018-07-13T04:51:03.153Z,15.10
2018-07-13T04:53:31.723Z,17.20
2018-07-13T04:56:00.828Z,16.90
2018-07-13T04:58:29.376Z,14.77
2018-07-13T05:00:58.417Z,13.67
2018-07-13T05:03:27.533Z,20.50
2018-07-13T05:05:56.607Z,15.27
2018-07-13T05:08:25.651Z,11.43
2018-07-13T05:10:54.697Z,13.07
2018-07-13T05:13:23.786Z,13.93
2018-07-13T05:15:52.907Z,11.70
2018-07-13T05:18:21.956Z,18.00
2018-07-13T05:20:50.925Z,15.40
2018-07-13T05:23:20.049Z,18.40
2018-07-13T05:25:49.136Z,12.33
2018-07-13T05:28:17.715Z,11.03
2018-07-13T05:30:46.425Z,11.13
2018-07-13T05:33:15.632Z,13.73
2018-07-13T05:35:44.707Z,15.77
2018-07-13T05:38:13.803Z,13.13
2018-07-13T05:40:42.908Z,10.80
2018-07-13T05:43:12.045Z,9.37
2018-07-13T05:45:41.172Z,11.10
2018-07-13T05:48:10.744Z,8.57
2018-07-13T05:50:39.860Z,11.20
2018-07-13T05:53:09.163Z,12.17
2018-07-13T05:55:37.955Z,10.23
2018-07-13T05:58:08.035Z,9.67
2018-07-13T06:00:37.153Z,9.20
2018-07-13T06:03:06.257Z,9.80
2018-07-13T06:05:35.618Z,8.13
2018-07-13T06:08:05.100Z,11.93
2018-07-13T06:10:34.156Z,8.17
2018-07-13T06:13:02.765Z,9.50
2018-07-13T06:15:32.196Z,6.37
2018-07-13T06:18:01.261Z,7.93
2018-07-13T06:20:30.320Z,7.70
2018-07-13T06:22:59.037Z,7.10
2018-07-13T06:25:28.055Z,6.17
2018-07-13T06:27:57.089Z,6.83
2018-07-13T06:30:25.593Z,7.37
2018-07-13T06:32:54.615Z,5.70
2018-07-13T06:35:23.877Z,6.10
2018-07-13T06:37:53.629Z,6.00
2018-07-13T06:40:22.965Z,5.10
2018-07-13T06:42:51.827Z,12.07
2018-07-13T06:45:20.940Z,6.40
2018-07-13T06:47:49.992Z,6.50
2018-07-13T06:50:19.143Z,5.60
2018-07-13T06:52:48.385Z,5.10
2018-07-13T06:55:18.064Z,4.80
2018-07-13T06:57:57.944Z,4.60
2018-07-13T07:01:07.897Z,4.77
2018-07-13T07:04:50.964Z,5.33
2018-07-13T07:07:22.631Z,4.70
2018-07-13T07:09:56.621Z,4.93
2018-07-13T07:13:32.041Z,4.53
2018-07-13T07:16:01.593Z,4.17
2018-07-13T07:18:30.810Z,3.93
2018-07-13T07:20:59.990Z,5.37
2018-07-13T07:23:29.795Z,6.63
2018-07-13T07:25:58.925Z,4.67
2018-07-13T07:28:28.741Z,5.20
2018-07-13T07:30:58.410Z,5.20
2018-07-13T07:33:27.794Z,4.40
2018-07-13T07:35:56.852Z,6.73
2018-07-13T07:38:26.010Z,7.27
2018-07-13T07:40:55.121Z,3.63
2018-07-13T07:43:24.160Z,3.67
2018-07-13T07:45:53.615Z,4.37
2018-07-13T07:48:22.623Z,5.90
2018-07-13T07:50:51.617Z,13.03
2018-07-13T07:53:20.165Z,4.17
2018-07-13T07:55:49.148Z,5.20
2018-07-13T07:58:18.180Z,4.70
2018-07-13T08:00:47.144Z,3.70
2018-07-13T08:03:16.181Z,6.43
2018-07-13T08:05:46.599Z,5.77
2018-07-13T08:08:15.769Z,6.13
2018-07-13T08:10:44.673Z,5.23
2018-07-13T08:13:14.587Z,4.63
2018-07-13T08:15:43.796Z,4.30
2018-07-13T08:18:12.808Z,4.63
2018-07-13T08:20:45.353Z,5.00
2018-07-13T08:23:14.496Z,3.87
2018-07-13T08:25:44.944Z,4.20
2018-07-13T08:28:14.689Z,5.70
2018-07-13T08:30:45.722Z,4.33
2018-07-13T08:33:14.945Z,4.27
2018-07-13T08:35:44.188Z,5.40
2018-07-13T08:38:13.186Z,3.77
2018-07-13T08:40:42.526Z,3.23
2018-07-13T08:43:11.607Z,3.30
2018-07-13T08:45:40.995Z,3.43
2018-07-13T08:48:10.130Z,3.67
2018-07-13T08:50:38.694Z,4.80
2018-07-13T08:53:08.080Z,3.13
2018-07-13T08:55:37.246Z,2.83
2018-07-13T08:58:06.598Z,3.60
2018-07-13T09:00:35.889Z,2.60
2018-07-13T09:03:05.178Z,2.70
2018-07-13T09:05:34.256Z,3.47
2018-07-13T09:08:03.472Z,3.10
2018-07-13T09:10:33.577Z,2.90
2018-07-13T09:13:02.736Z,2.90
2018-07-13T09:15:31.704Z,2.90
2018-07-13T09:18:00.876Z,2.90
2018-07-13T09:20:30.325Z,3.27
2018-07-13T09:22:59.793Z,3.10
2018-07-13T09:25:30.618Z,3.57
2018-07-13T09:27:59.690Z,5.13
2018-07-13T09:30:28.780Z,3.37
2018-07-13T09:32:57.764Z,3.13
2018-07-13T09:35:26.737Z,2.93
2018-07-13T09:37:56.029Z,3.03
2018-07-13T09:40:25.196Z,4.97
2018-07-13T09:42:53.731Z,3.17
2018-07-13T09:45:22.777Z,7.93
2018-07-13T09:47:51.731Z,3.90
2018-07-13T09:50:21.327Z,5.40
2018-07-13T09:52:50.961Z,4.40
2018-07-13T09:55:20.534Z,3.47
2018-07-13T09:57:49.616Z,4.63
2018-07-13T10:00:18.912Z,4.13
2018-07-13T10:02:47.968Z,3.70
2018-07-13T10:05:16.510Z,4.83
2018-07-13T10:07:45.557Z,4.07
2018-07-13T10:10:14.612Z,3.60
2018-07-13T10:12:44.568Z,4.30
2018-07-13T10:15:13.660Z,4.43
2018-07-13T10:17:42.650Z,8.23
2018-07-13T10:20:11.669Z,3.27
2018-07-13T10:22:40.784Z,4.50
2018-07-13T10:25:09.961Z,2.97
2018-07-13T10:27:39.606Z,3.40
2018-07-13T10:30:11.947Z,3.20
2018-07-13T10:32:42.185Z,3.60
2018-07-13T10:35:11.628Z,3.33
2018-07-13T10:37:42.689Z,3.43
2018-07-13T10:40:11.905Z,5.43
2018-07-13T10:42:40.921Z,3.23
2018-07-13T10:45:10.071Z,3.90
2018-07-13T10:47:39.322Z,3.07
2018-07-13T10:50:08.379Z,3.93
2018-07-13T10:52:37.653Z,3.23
2018-07-13T10:55:06.658Z,2.47
2018-07-13T10:57:35.600Z,2.60
2018-07-13T11:00:04.979Z,2.80
2018-07-13T11:02:33.978Z,2.93
2018-07-13T11:05:03.150Z,3.00
2018-07-13T11:07:32.247Z,8.63
2018-07-13T11:10:01.288Z,2.63
2018-07-13T11:12:30.315Z,4.80
2018-07-13T11:14:59.352Z,2.47
2018-07-13T11:17:28.343Z,3.10
2018-07-13T11:19:57.340Z,2.90
2018-07-13T11:22:26.337Z,3.80
2018-07-13T11:24:55.053Z,2.93
2018-07-13T11:27:24.268Z,3.27
2018-07-13T11:29:53.680Z,2.97
2018-07-13T11:32:22.670Z,2.73
2018-07-13T11:34:51.897Z,2.67
2018-07-13T11:37:20.911Z,2.77
2018-07-13T11:39:49.896Z,2.77
2018-07-13T11:42:18.447Z,3.70
2018-07-13T11:44:48.120Z,5.07
2018-07-13T11:47:17.127Z,3.10
2018-07-13T11:49:46.060Z,2.80
2018-07-13T11:52:14.691Z,4.70
2018-07-13T11:54:43.633Z,6.70
2018-07-13T11:57:12.627Z,3.00
2018-07-13T11:59:41.113Z,2.57
2018-07-13T12:02:10.100Z,2.60
2018-07-13T12:04:39.050Z,2.27
2018-07-13T12:07:08.380Z,3.70
2018-07-13T12:09:37.453Z,2.70
2018-07-13T12:12:06.581Z,2.70
2018-07-13T12:14:35.520Z,2.40
2018-07-13T12:17:05.238Z,6.90
2018-07-13T12:19:34.301Z,4.63
2018-07-13T12:22:03.369Z,2.80
2018-07-13T12:24:32.009Z,2.50
2018-07-13T12:27:01.019Z,2.60
2018-07-13T12:29:30.054Z,5.77
2018-07-13T12:31:59.088Z,2.27
2018-07-13T12:34:28.117Z,2.50
2018-07-13T12:36:56.660Z,2.77
2018-07-13T12:39:25.706Z,2.50
2018-07-13T12:41:55.055Z,2.63
2018-07-13T12:44:24.077Z,2.33
2018-07-13T12:46:52.627Z,2.60
2018-07-13T12:49:21.652Z,2.80
2018-07-13T12:51:50.729Z,3.40
2018-07-13T12:54:19.940Z,3.10
2018-07-13T12:56:48.823Z,4.33
2018-07-13T12:59:17.783Z,5.37
2018-07-13T13:01:46.835Z,2.20
2018-07-13T13:04:15.803Z,3.10
2018-07-13T13:06:44.827Z,2.30
2018-07-13T13:09:13.828Z,2.70
2018-07-13T13:11:42.757Z,2.50
2018-07-13T13:14:11.747Z,3.63
2018-07-13T13:16:40.736Z,3.30
2018-07-13T13:19:10.604Z,2.40
2018-07-13T13:21:39.769Z,2.73
2018-07-13T13:24:08.785Z,3.43
2018-07-13T13:26:37.857Z,2.93
2018-07-13T13:29:06.504Z,2.60
2018-07-13T13:31:35.416Z,2.80
2018-07-13T13:34:03.950Z,2.03
2018-07-13T13:36:33.667Z,3.90
2018-07-13T13:39:02.745Z,2.73
2018-07-13T13:41:31.709Z,4.13
2018-07-13T13:44:00.685Z,3.17
2018-07-13T13:46:29.653Z,2.43
2018-07-13T13:48:58.639Z,4.30
2018-07-13T13:51:27.589Z,2.50
2018-07-13T13:53:56.580Z,6.60
2018-07-13T13:56:25.591Z,2.90
2018-07-13T13:58:54.555Z,2.93
2018-07-13T14:01:23.520Z,2.97
2018-07-13T14:03:52.511Z,2.90
2018-07-13T14:06:21.446Z,3.73
2018-07-13T14:08:50.527Z,2.80
2018-07-13T14:11:20.265Z,2.70
2018-07-13T14:13:49.326Z,2.50
2018-07-13T14:16:18.360Z,2.90
2018-07-13T14:18:47.408Z,3.03
2018-07-13T14:21:16.476Z,3.10
2018-07-13T14:23:45.639Z,7.00
2018-07-13T14:26:14.748Z,2.90
2018-07-13T14:28:43.751Z,7.80
2018-07-13T14:31:12.363Z,2.43
2018-07-13T14:33:41.445Z,2.73
2018-07-13T14:36:10.508Z,2.90
2018-07-13T14:38:39.954Z,2.77
2018-07-13T14:41:09.096Z,2.83
2018-07-13T14:43:38.239Z,4.70
2018-07-13T14:46:07.336Z,4.30
2018-07-13T14:48:36.412Z,2.77
2018-07-13T14:51:04.972Z,2.80
2018-07-13T14:53:34.059Z,2.70
2018-07-13T14:56:03.167Z,2.37
2018-07-13T14:58:32.166Z,2.90
2018-07-13T15:01:00.698Z,3.17
2018-07-13T15:03:29.762Z,2.90
2018-07-13T15:05:58.785Z,4.80
2018-07-13T15:08:27.843Z,2.50
2018-07-13T15:10:57.293Z,4.47
2018-07-13T15:13:26.934Z,3.30
2018-07-13T15:15:55.982Z,2.17
2018-07-13T15:18:24.947Z,3.20
2018-07-13T15:20:54.120Z,3.30
2018-07-13T15:23:23.876Z,2.90
2018-07-13T15:25:53.327Z,4.20
2018-07-13T15:28:21.866Z,2.93
2018-07-13T15:30:51.200Z,3.20
2018-07-13T15:33:20.198Z,3.00
2018-07-13T15:35:52.008Z,2.50
2018-07-13T15:38:21.100Z,2.73
2018-07-13T15:40:50.360Z,2.83
2018-07-13T15:43:20.180Z,2.90
2018-07-13T15:45:50.160Z,3.07
2018-07-13T15:48:19.282Z,2.70
2018-07-13T15:50:48.316Z,2.80
2018-07-13T15:53:17.401Z,2.90
2018-07-13T15:55:51.698Z,4.83
2018-07-13T15:58:21.537Z,4.80
2018-07-13T16:00:50.588Z,2.10
2018-07-13T16:03:19.632Z,2.30
2018-07-13T16:05:55.841Z,3.10
2018-07-13T16:08:26.619Z,3.20
2018-07-13T16:10:55.706Z,2.90
2018-07-13T16:13:24.771Z,2.60
2018-07-13T16:15:53.836Z,2.80
2018-07-13T16:18:22.442Z,3.00
2018-07-13T16:20:52.108Z,3.10
2018-07-13T16:23:21.209Z,3.17
2018-07-13T16:25:50.333Z,2.70
2018-07-13T16:28:19.923Z,3.27
2018-07-13T16:30:48.522Z,2.43
2018-07-13T16:33:21.122Z,2.57
2018-07-13T16:35:51.157Z,2.90
2018-07-13T16:38:22.830Z,2.57
2018-07-13T16:40:51.900Z,3.80
2018-07-13T16:43:20.921Z,3.63
2018-07-13T16:45:49.922Z,3.03
2018-07-13T16:48:18.461Z,2.70
2018-07-13T16:50:47.537Z,2.93
2018-07-13T16:53:16.676Z,2.30
2018-07-13T16:55:47.319Z,2.80
2018-07-13T16:58:16.547Z,5.97
2018-07-13T17:00:45.577Z,3.63
2018-07-13T17:03:14.672Z,2.47
2018-07-13T17:05:43.730Z,2.43
2018-07-13T17:08:12.709Z,4.37
2018-07-13T17:10:41.731Z,2.60
2018-07-13T17:13:12.036Z,2.33
2018-07-13T17:15:41.062Z,3.73
2018-07-13T17:18:10.073Z,3.67
2018-07-13T17:20:39.274Z,6.13
2018-07-13T17:23:08.436Z,2.60
2018-07-13T17:25:37.582Z,5.47
2018-07-13T17:28:06.629Z,2.87
2018-07-13T17:30:35.670Z,2.83
2018-07-13T17:33:04.876Z,3.40
2018-07-13T17:35:33.937Z,3.30
2018-07-13T17:38:02.936Z,3.40
2018-07-13T17:40:31.542Z,3.27
2018-07-13T17:43:00.654Z,3.03
2018-07-13T17:45:29.748Z,2.70
2018-07-13T17:47:58.792Z,2.80
2018-07-13T17:50:28.089Z,2.70
2018-07-13T17:52:57.132Z,2.40
2018-07-13T17:55:26.189Z,2.80
2018-07-13T17:57:54.810Z,4.13
2018-07-13T18:00:23.805Z,2.50
2018-07-13T18:02:52.839Z,2.70
2018-07-13T18:05:21.864Z,2.57
2018-07-13T18:07:50.984Z,2.60
2018-07-13T18:10:20.049Z,4.47
2018-07-13T18:12:49.228Z,2.23
2018-07-13T18:15:17.689Z,2.93
2018-07-13T18:17:46.669Z,3.17
2018-07-13T18:20:15.754Z,2.60
2018-07-13T18:22:44.841Z,2.90
2018-07-13T18:25:13.940Z,4.10
2018-07-13T18:27:43.011Z,3.40
2018-07-13T18:30:12.177Z,3.70
2018-07-13T18:32:41.247Z,3.17
2018-07-13T18:35:10.609Z,2.93
2018-07-13T18:37:39.646Z,3.50
2018-07-13T18:40:10.347Z,3.00
2018-07-13T18:42:39.397Z,8.10
2018-07-13T18:45:08.464Z,3.20
2018-07-13T18:47:37.568Z,3.63
2018-07-13T18:50:06.748Z,4.20
2018-07-13T18:52:35.856Z,3.13
2018-07-13T18:55:04.418Z,3.07
2018-07-13T18:57:33.478Z,3.37
2018-07-13T19:00:02.514Z,3.33
2018-07-13T19:02:31.565Z,3.50
2018-07-13T19:05:00.654Z,4.60
2018-07-13T19:07:29.756Z,3.67
2018-07-13T19:10:00.157Z,4.10
2018-07-13T19:12:44.020Z,4.47
2018-07-13T19:15:59.571Z,4.30
2018-07-13T19:21:58.562Z,8.63
2018-07-13T19:24:49.046Z,6.87
2018-07-13T19:34:02.458Z,6.90
2018-07-13T19:36:36.568Z,7.33
2018-07-13T19:39:08.285Z,6.60
2018-07-13T19:41:38.067Z,7.70
2018-07-13T19:44:07.349Z,5.57
2018-07-13T19:46:36.758Z,4.73
2018-07-13T19:49:05.873Z,4.53
2018-07-13T19:51:35.012Z,6.30
2018-07-13T19:54:05.184Z,4.33
2018-07-13T19:56:34.781Z,7.90
2018-07-13T19:59:04.089Z,6.90
2018-07-13T20:01:33.490Z,5.73
2018-07-13T20:04:03.402Z,5.23
2018-07-13T20:06:32.179Z,8.20
2018-07-13T20:09:01.549Z,4.73
2018-07-13T20:11:31.103Z,5.67
2018-07-13T20:14:00.008Z,4.83
2018-07-13T20:16:29.328Z,5.60
2018-07-13T20:18:58.637Z,6.33
2018-07-13T20:21:27.995Z,5.40
2018-07-13T20:23:57.703Z,5.60
2018-07-13T20:26:26.811Z,5.90
2018-07-13T20:28:56.213Z,7.20
2018-07-13T20:31:25.763Z,8.33
2018-07-13T20:33:55.314Z,8.77
2018-07-13T20:36:25.180Z,10.50
2018-07-13T20:38:54.628Z,9.83
2018-07-13T20:41:23.354Z,9.20
2018-07-13T20:43:52.691Z,9.63
2018-07-13T20:46:21.815Z,9.50
2018-07-13T20:48:52.182Z,9.80
2018-07-13T20:51:22.382Z,14.83
2018-07-13T20:53:53.625Z,15.40
2018-07-13T20:56:23.227Z,10.10
2018-07-13T20:58:52.936Z,10.13
2018-07-13T21:01:22.450Z,9.73
2018-07-13T21:03:52.030Z,11.23
2018-07-13T21:06:21.939Z,9.47
2018-07-13T21:08:51.380Z,10.17
2018-07-13T21:11:20.858Z,10.30
2018-07-13T21:13:50.285Z,8.20
2018-07-13T21:16:21.332Z,11.10
2018-07-13T21:18:50.786Z,9.07
2018-07-13T21:21:20.378Z,10.23
2018-07-13T21:23:49.836Z,8.43
2018-07-13T21:26:19.388Z,10.50
2018-07-13T21:28:48.641Z,8.80
2018-07-13T21:31:18.661Z,10.43
2018-07-13T21:33:48.482Z,11.83
2018-07-13T21:36:17.946Z,10.27
2018-07-13T21:38:47.284Z,10.27
2018-07-13T21:41:16.445Z,12.30
2018-07-13T21:43:45.539Z,10.90
2018-07-13T21:46:14.574Z,12.33
2018-07-13T21:48:43.125Z,11.57
2018-07-13T21:51:12.195Z,10.20
2018-07-13T21:53:42.147Z,10.03
2018-07-13T21:56:11.208Z,13.10
2018-07-13T21:58:40.212Z,10.30
2018-07-13T22:01:09.364Z,8.83
2018-07-13T22:03:39.084Z,8.67
2018-07-13T22:06:08.210Z,9.10
2018-07-13T22:08:37.300Z,8.83
2018-07-13T22:11:06.536Z,9.77
2018-07-13T22:13:35.169Z,11.73
2018-07-13T22:16:04.266Z,9.40
2018-07-13T22:18:33.293Z,14.40
2018-07-13T22:21:02.380Z,12.90
2018-07-13T22:23:31.497Z,13.80
2018-07-13T22:26:00.616Z,21.70
2018-07-13T22:28:29.628Z,35.13
2018-07-13T22:30:58.760Z,16.10
2018-07-13T22:33:27.919Z,14.10
2018-07-13T22:35:56.936Z,15.93
2018-07-13T22:38:27.089Z,15.33
2018-07-13T22:40:56.152Z,20.27
2018-07-13T22:43:25.284Z,13.80
2018-07-13T22:45:53.877Z,12.87
2018-07-13T22:48:22.928Z,11.47
2018-07-13T22:50:51.959Z,11.37
2018-07-13T22:53:21.066Z,9.90
2018-07-13T22:55:50.165Z,11.20
2018-07-13T22:58:19.165Z,12.20
2018-07-13T23:00:48.422Z,8.87
2018-07-13T23:03:17.345Z,11.33
2018-07-13T23:05:46.290Z,10.57
2018-07-13T23:08:15.916Z,11.57
2018-07-13T23:10:44.928Z,10.30
2018-07-13T23:13:13.880Z,10.60
2018-07-13T23:15:42.852Z,9.63
2018-07-13T23:18:11.872Z,12.17
2018-07-13T23:20:41.395Z,11.83
2018-07-13T23:23:10.394Z,12.70
2018-07-13T23:25:39.726Z,12.90
2018-07-13T23:28:08.710Z,13.30
2018-07-13T23:30:37.673Z,15.00
2018-07-13T23:33:06.816Z,15.03
2018-07-13T23:35:36.537Z,14.33
2018-07-13T23:38:05.839Z,14.20
2018-07-13T23:40:34.849Z,14.57
2018-07-13T23:43:04.721Z,13.13
2018-07-13T23:45:33.686Z,11.47
2018-07-13T23:48:02.684Z,16.10
2018-07-13T23:50:31.757Z,12.80
2018-07-13T23:53:00.757Z,15.40
2018-07-13T23:55:29.756Z,13.90
2018-07-13T23:57:58.753Z,15.60
